sensor_id;sensor_type;location;lat;lon;timestamp;P1;durP1;ratioP1;P2;durP2;ratioP2
36551;SDS011;22559;54.176;12.102;2024-02-26T00:02:23;7.93;;;5.67;;
36551;SDS011;22559;54.176;12.102;2024-02-26T00:04:49;5.40;;;4.90;;
36551;SDS011;22559;54.176;12.102;2024-02-26T00:07:15;5.00;;;4.57;;
36551;SDS011;22559;54.176;12.102;2024-02-26T00:09:41;5.30;;;4.77;;
36551;SDS011;22559;54.176;12.102;2024-02-26T00:12:06;5.07;;;4.67;;
36551;SDS011;22559;54.176;12.102;2024-02-26T00:14:32;5.27;;;4.77;;
36551;SDS011;22559;54.176;12.102;2024-02-26T00:16:58;4.60;;;4.30;;
36551;SDS011;22559;54.176;12.102;2024-02-26T00:19:24;5.30;;;4.23;;
36551;SDS011;22559;54.176;12.102;2024-02-26T00:21:50;4.87;;;4.37;;
36551;SDS011;22559;54.176;12.102;2024-02-26T00:24:15;6.13;;;4.53;;
36551;SDS011;22559;54.176;12.102;2024-02-26T00:26:41;4.57;;;4.17;;
36551;SDS011;22559;54.176;12.102;2024-02-26T00:29:07;4.43;;;4.03;;
36551;SDS011;22559;54.176;12.102;2024-02-26T00:31:32;4.93;;;4.40;;
36551;SDS011;22559;54.176;12.102;2024-02-26T00:33:58;4.80;;;4.40;;
36551;SDS011;22559;54.176;12.102;2024-02-26T00:36:24;5.73;;;5.07;;
36551;SDS011;22559;54.176;12.102;2024-02-26T00:38:49;4.80;;;4.40;;
36551;SDS011;22559;54.176;12.102;2024-02-26T00:41:18;5.00;;;4.60;;
36551;SDS011;22559;54.176;12.102;2024-02-26T00:43:44;4.90;;;4.40;;
36551;SDS011;22559;54.176;12.102;2024-02-26T00:46:10;5.20;;;4.63;;
36551;SDS011;22559;54.176;12.102;2024-02-26T00:48:35;5.67;;;5.17;;
36551;SDS011;22559;54.176;12.102;2024-02-26T00:51:02;5.27;;;4.77;;
36551;SDS011;22559;54.176;12.102;2024-02-26T00:53:30;5.17;;;4.63;;
36551;SDS011;22559;54.176;12.102;2024-02-26T00:55:56;4.63;;;4.23;;
36551;SDS011;22559;54.176;12.102;2024-02-26T00:58:23;6.67;;;4.90;;
36551;SDS011;22559;54.176;12.102;2024-02-26T01:00:49;4.93;;;4.53;;
36551;SDS011;22559;54.176;12.102;2024-02-26T01:03:15;5.03;;;4.40;;
36551;SDS011;22559;54.176;12.102;2024-02-26T01:05:40;4.33;;;4.03;;
36551;SDS011;22559;54.176;12.102;2024-02-26T01:08:06;5.30;;;4.80;;
36551;SDS011;22559;54.176;12.102;2024-02-26T01:10:33;5.93;;;5.10;;
36551;SDS011;22559;54.176;12.102;2024-02-26T01:12:59;4.70;;;4.30;;
36551;SDS011;22559;54.176;12.102;2024-02-26T01:15:25;4.83;;;4.43;;
36551;SDS011;22559;54.176;12.102;2024-02-26T01:17:50;4.30;;;3.93;;
36551;SDS011;22559;54.176;12.102;2024-02-26T01:20:16;4.33;;;3.93;;
36551;SDS011;22559;54.176;12.102;2024-02-26T01:22:42;4.40;;;4.00;;
36551;SDS011;22559;54.176;12.102;2024-02-26T01:25:09;5.07;;;3.73;;
36551;SDS011;22559;54.176;12.102;2024-02-26T01:27:35;4.20;;;3.90;;
36551;SDS011;22559;54.176;12.102;2024-02-26T01:30:05;4.70;;;4.37;;
36551;SDS011;22559;54.176;12.102;2024-02-26T01:32:31;4.80;;;4.00;;
36551;SDS011;22559;54.176;12.102;2024-02-26T01:34:57;5.97;;;4.00;;
36551;SDS011;22559;54.176;12.102;2024-02-26T01:37:23;4.10;;;3.80;;
36551;SDS011;22559;54.176;12.102;2024-02-26T01:39:48;5.47;;;3.70;;
36551;SDS011;22559;54.176;12.102;2024-02-26T01:42:14;4.73;;;4.23;;
36551;SDS011;22559;54.176;12.102;2024-02-26T01:44:40;5.03;;;3.77;;
36551;SDS011;22559;54.176;12.102;2024-02-26T01:47:07;4.17;;;3.87;;
36551;SDS011;22559;54.176;12.102;2024-02-26T01:49:35;4.30;;;3.93;;
36551;SDS011;22559;54.176;12.102;2024-02-26T01:52:03;3.93;;;3.57;;
36551;SDS011;22559;54.176;12.102;2024-02-26T01:54:29;4.53;;;3.77;;
36551;SDS011;22559;54.176;12.102;2024-02-26T01:56:56;5.17;;;4.30;;
36551;SDS011;22559;54.176;12.102;2024-02-26T01:59:22;3.93;;;3.63;;
36551;SDS011;22559;54.176;12.102;2024-02-26T02:01:51;3.93;;;3.60;;
36551;SDS011;22559;54.176;12.102;2024-02-26T02:04:19;3.90;;;3.70;;
36551;SDS011;22559;54.176;12.102;2024-02-26T02:06:46;4.03;;;3.73;;
36551;SDS011;22559;54.176;12.102;2024-02-26T02:09:13;4.70;;;4.20;;
36551;SDS011;22559;54.176;12.102;2024-02-26T02:11:39;4.33;;;4.03;;
36551;SDS011;22559;54.176;12.102;2024-02-26T02:14:04;4.07;;;3.77;;
36551;SDS011;22559;54.176;12.102;2024-02-26T02:16:31;5.53;;;4.03;;
36551;SDS011;22559;54.176;12.102;2024-02-26T02:18:57;4.20;;;3.80;;
36551;SDS011;22559;54.176;12.102;2024-02-26T02:21:23;4.60;;;4.20;;
36551;SDS011;22559;54.176;12.102;2024-02-26T02:23:49;4.40;;;4.00;;
36551;SDS011;22559;54.176;12.102;2024-02-26T02:26:15;4.20;;;3.90;;
36551;SDS011;22559;54.176;12.102;2024-02-26T02:28:41;5.60;;;3.73;;
36551;SDS011;22559;54.176;12.102;2024-02-26T02:31:07;3.80;;;3.47;;
36551;SDS011;22559;54.176;12.102;2024-02-26T02:33:33;4.03;;;3.73;;
36551;SDS011;22559;54.176;12.102;2024-02-26T02:35:59;4.77;;;4.17;;
36551;SDS011;22559;54.176;12.102;2024-02-26T02:38:25;4.30;;;4.00;;
36551;SDS011;22559;54.176;12.102;2024-02-26T02:40:52;4.40;;;4.00;;
36551;SDS011;22559;54.176;12.102;2024-02-26T02:43:18;4.13;;;3.83;;
36551;SDS011;22559;54.176;12.102;2024-02-26T02:45:43;4.17;;;3.87;;
36551;SDS011;22559;54.176;12.102;2024-02-26T02:48:10;4.30;;;3.87;;
36551;SDS011;22559;54.176;12.102;2024-02-26T02:50:36;4.30;;;4.00;;
36551;SDS011;22559;54.176;12.102;2024-02-26T02:53:02;4.47;;;4.07;;
36551;SDS011;22559;54.176;12.102;2024-02-26T02:55:28;3.93;;;3.63;;
36551;SDS011;22559;54.176;12.102;2024-02-26T02:57:53;3.83;;;3.43;;
36551;SDS011;22559;54.176;12.102;2024-02-26T03:00:19;4.13;;;3.83;;
36551;SDS011;22559;54.176;12.102;2024-02-26T03:02:45;4.23;;;3.93;;
36551;SDS011;22559;54.176;12.102;2024-02-26T03:05:11;4.30;;;3.90;;
36551;SDS011;22559;54.176;12.102;2024-02-26T03:07:37;4.20;;;3.80;;
36551;SDS011;22559;54.176;12.102;2024-02-26T03:10:02;3.80;;;3.60;;
36551;SDS011;22559;54.176;12.102;2024-02-26T03:12:29;4.60;;;3.90;;
36551;SDS011;22559;54.176;12.102;2024-02-26T03:14:55;4.57;;;4.17;;
36551;SDS011;22559;54.176;12.102;2024-02-26T03:17:21;4.37;;;4.07;;
36551;SDS011;22559;54.176;12.102;2024-02-26T03:19:46;4.50;;;4.10;;
36551;SDS011;22559;54.176;12.102;2024-02-26T03:22:13;4.57;;;4.20;;
36551;SDS011;22559;54.176;12.102;2024-02-26T03:24:38;4.73;;;3.90;;
36551;SDS011;22559;54.176;12.102;2024-02-26T03:27:04;5.13;;;3.87;;
36551;SDS011;22559;54.176;12.102;2024-02-26T03:29:34;4.50;;;4.10;;
36551;SDS011;22559;54.176;12.102;2024-02-26T03:32:00;4.40;;;3.83;;
36551;SDS011;22559;54.176;12.102;2024-02-26T03:34:26;4.70;;;4.07;;
36551;SDS011;22559;54.176;12.102;2024-02-26T03:36:52;5.10;;;4.70;;
36551;SDS011;22559;54.176;12.102;2024-02-26T03:39:17;4.30;;;3.90;;
36551;SDS011;22559;54.176;12.102;2024-02-26T03:41:43;5.37;;;4.37;;
36551;SDS011;22559;54.176;12.102;2024-02-26T03:44:09;5.47;;;4.17;;
36551;SDS011;22559;54.176;12.102;2024-02-26T03:46:34;5.83;;;4.57;;
36551;SDS011;22559;54.176;12.102;2024-02-26T03:49:00;5.93;;;5.07;;
36551;SDS011;22559;54.176;12.102;2024-02-26T03:51:26;5.77;;;5.10;;
36551;SDS011;22559;54.176;12.102;2024-02-26T03:53:56;5.57;;;5.10;;
36551;SDS011;22559;54.176;12.102;2024-02-26T03:56:22;7.27;;;4.57;;
36551;SDS011;22559;54.176;12.102;2024-02-26T03:58:48;5.10;;;4.70;;
36551;SDS011;22559;54.176;12.102;2024-02-26T04:01:14;7.33;;;5.13;;
36551;SDS011;22559;54.176;12.102;2024-02-26T04:03:39;5.37;;;4.43;;
36551;SDS011;22559;54.176;12.102;2024-02-26T04:06:08;5.27;;;4.77;;
36551;SDS011;22559;54.176;12.102;2024-02-26T04:08:35;4.90;;;4.50;;
36551;SDS011;22559;54.176;12.102;2024-02-26T04:11:01;4.80;;;4.40;;
36551;SDS011;22559;54.176;12.102;2024-02-26T04:13:32;5.00;;;4.37;;
36551;SDS011;22559;54.176;12.102;2024-02-26T04:16:03;7.23;;;4.77;;
36551;SDS011;22559;54.176;12.102;2024-02-26T04:18:29;5.63;;;4.90;;
36551;SDS011;22559;54.176;12.102;2024-02-26T04:20:54;7.63;;;4.43;;
36551;SDS011;22559;54.176;12.102;2024-02-26T04:23:21;4.67;;;4.30;;
36551;SDS011;22559;54.176;12.102;2024-02-26T04:25:47;4.90;;;4.50;;
36551;SDS011;22559;54.176;12.102;2024-02-26T04:28:13;4.93;;;4.53;;
36551;SDS011;22559;54.176;12.102;2024-02-26T04:30:39;5.23;;;4.53;;
36551;SDS011;22559;54.176;12.102;2024-02-26T04:33:05;5.20;;;4.70;;
36551;SDS011;22559;54.176;12.102;2024-02-26T04:35:30;5.53;;;5.03;;
36551;SDS011;22559;54.176;12.102;2024-02-26T04:37:56;6.97;;;5.03;;
36551;SDS011;22559;54.176;12.102;2024-02-26T04:40:22;4.73;;;4.33;;
36551;SDS011;22559;54.176;12.102;2024-02-26T04:42:48;6.10;;;5.23;;
36551;SDS011;22559;54.176;12.102;2024-02-26T04:45:14;5.60;;;5.10;;
36551;SDS011;22559;54.176;12.102;2024-02-26T04:47:40;6.23;;;5.17;;
36551;SDS011;22559;54.176;12.102;2024-02-26T04:50:06;8.13;;;5.63;;
36551;SDS011;22559;54.176;12.102;2024-02-26T04:52:32;12.53;;;5.93;;
36551;SDS011;22559;54.176;12.102;2024-02-26T04:54:57;5.90;;;5.33;;
36551;SDS011;22559;54.176;12.102;2024-02-26T04:57:25;6.07;;;5.47;;
36551;SDS011;22559;54.176;12.102;2024-02-26T04:59:51;10.93;;;5.37;;
36551;SDS011;22559;54.176;12.102;2024-02-26T05:02:16;6.10;;;5.40;;
36551;SDS011;22559;54.176;12.102;2024-02-26T05:04:42;6.53;;;5.93;;
36551;SDS011;22559;54.176;12.102;2024-02-26T05:07:08;5.83;;;5.23;;
36551;SDS011;22559;54.176;12.102;2024-02-26T05:09:34;6.20;;;5.17;;
36551;SDS011;22559;54.176;12.102;2024-02-26T05:12:00;6.47;;;5.50;;
36551;SDS011;22559;54.176;12.102;2024-02-26T05:14:25;5.83;;;5.23;;
36551;SDS011;22559;54.176;12.102;2024-02-26T05:16:51;6.03;;;5.30;;
36551;SDS011;22559;54.176;12.102;2024-02-26T05:19:17;6.03;;;5.43;;
36551;SDS011;22559;54.176;12.102;2024-02-26T05:21:42;5.77;;;5.27;;
36551;SDS011;22559;54.176;12.102;2024-02-26T05:24:09;7.27;;;5.50;;
36551;SDS011;22559;54.176;12.102;2024-02-26T05:26:35;6.47;;;5.23;;
36551;SDS011;22559;54.176;12.102;2024-02-26T05:29:01;9.67;;;5.47;;
36551;SDS011;22559;54.176;12.102;2024-02-26T05:31:26;6.43;;;5.83;;
36551;SDS011;22559;54.176;12.102;2024-02-26T05:33:53;6.57;;;5.97;;
36551;SDS011;22559;54.176;12.102;2024-02-26T05:36:19;5.80;;;5.30;;
36551;SDS011;22559;54.176;12.102;2024-02-26T05:38:47;6.80;;;5.40;;
36551;SDS011;22559;54.176;12.102;2024-02-26T05:41:14;5.97;;;4.87;;
36551;SDS011;22559;54.176;12.102;2024-02-26T05:43:41;7.70;;;5.60;;
36551;SDS011;22559;54.176;12.102;2024-02-26T05:46:07;7.00;;;6.10;;
36551;SDS011;22559;54.176;12.102;2024-02-26T05:48:33;6.80;;;5.57;;
36551;SDS011;22559;54.176;12.102;2024-02-26T05:50:59;9.63;;;5.57;;
36551;SDS011;22559;54.176;12.102;2024-02-26T05:53:24;5.63;;;5.13;;
36551;SDS011;22559;54.176;12.102;2024-02-26T05:55:50;5.73;;;5.23;;
36551;SDS011;22559;54.176;12.102;2024-02-26T05:58:16;6.40;;;5.70;;
36551;SDS011;22559;54.176;12.102;2024-02-26T06:00:41;7.30;;;6.23;;
36551;SDS011;22559;54.176;12.102;2024-02-26T06:03:07;8.90;;;6.13;;
36551;SDS011;22559;54.176;12.102;2024-02-26T06:05:33;6.77;;;5.73;;
36551;SDS011;22559;54.176;12.102;2024-02-26T06:07:58;6.30;;;5.57;;
36551;SDS011;22559;54.176;12.102;2024-02-26T06:10:24;6.63;;;5.70;;
36551;SDS011;22559;54.176;12.102;2024-02-26T06:12:49;5.27;;;4.87;;
36551;SDS011;22559;54.176;12.102;2024-02-26T06:15:15;7.40;;;4.70;;
36551;SDS011;22559;54.176;12.102;2024-02-26T06:17:42;5.47;;;4.90;;
36551;SDS011;22559;54.176;12.102;2024-02-26T06:20:07;5.73;;;5.13;;
36551;SDS011;22559;54.176;12.102;2024-02-26T06:22:37;6.97;;;5.10;;
36551;SDS011;22559;54.176;12.102;2024-02-26T06:25:04;5.67;;;5.00;;
36551;SDS011;22559;54.176;12.102;2024-02-26T06:27:30;5.90;;;5.30;;
36551;SDS011;22559;54.176;12.102;2024-02-26T06:29:56;8.70;;;5.30;;
36551;SDS011;22559;54.176;12.102;2024-02-26T06:32:21;8.40;;;6.70;;
36551;SDS011;22559;54.176;12.102;2024-02-26T06:34:48;7.87;;;5.80;;
36551;SDS011;22559;54.176;12.102;2024-02-26T06:37:13;7.40;;;6.03;;
36551;SDS011;22559;54.176;12.102;2024-02-26T06:39:39;8.70;;;6.17;;
36551;SDS011;22559;54.176;12.102;2024-02-26T06:42:06;10.43;;;6.00;;
36551;SDS011;22559;54.176;12.102;2024-02-26T06:44:31;7.03;;;5.47;;
36551;SDS011;22559;54.176;12.102;2024-02-26T06:47:00;6.50;;;5.80;;
36551;SDS011;22559;54.176;12.102;2024-02-26T06:49:26;6.40;;;5.80;;
36551;SDS011;22559;54.176;12.102;2024-02-26T06:51:52;6.73;;;5.87;;
36551;SDS011;22559;54.176;12.102;2024-02-26T06:54:18;9.80;;;5.57;;
36551;SDS011;22559;54.176;12.102;2024-02-26T06:56:43;7.97;;;5.70;;
36551;SDS011;22559;54.176;12.102;2024-02-26T06:59:09;6.50;;;5.30;;
36551;SDS011;22559;54.176;12.102;2024-02-26T07:01:35;6.63;;;5.80;;
36551;SDS011;22559;54.176;12.102;2024-02-26T07:04:00;5.80;;;5.30;;
36551;SDS011;22559;54.176;12.102;2024-02-26T07:06:29;8.40;;;5.80;;
36551;SDS011;22559;54.176;12.102;2024-02-26T07:08:55;7.33;;;6.30;;
36551;SDS011;22559;54.176;12.102;2024-02-26T07:11:21;6.03;;;5.43;;
36551;SDS011;22559;54.176;12.102;2024-02-26T07:13:46;8.60;;;5.80;;
36551;SDS011;22559;54.176;12.102;2024-02-26T07:16:12;9.50;;;6.83;;
36551;SDS011;22559;54.176;12.102;2024-02-26T07:18:38;8.83;;;7.37;;
36551;SDS011;22559;54.176;12.102;2024-02-26T07:21:04;8.47;;;6.30;;
36551;SDS011;22559;54.176;12.102;2024-02-26T07:23:31;7.17;;;6.10;;
36551;SDS011;22559;54.176;12.102;2024-02-26T07:25:56;8.03;;;6.50;;
36551;SDS011;22559;54.176;12.102;2024-02-26T07:28:22;7.43;;;6.20;;
36551;SDS011;22559;54.176;12.102;2024-02-26T07:30:48;8.37;;;6.17;;
36551;SDS011;22559;54.176;12.102;2024-02-26T07:33:14;9.37;;;6.50;;
36551;SDS011;22559;54.176;12.102;2024-02-26T07:35:40;6.97;;;6.37;;
36551;SDS011;22559;54.176;12.102;2024-02-26T07:38:05;7.20;;;6.20;;
36551;SDS011;22559;54.176;12.102;2024-02-26T07:40:31;7.80;;;6.30;;
36551;SDS011;22559;54.176;12.102;2024-02-26T07:42:56;10.97;;;7.17;;
36551;SDS011;22559;54.176;12.102;2024-02-26T07:45:22;9.47;;;6.77;;
36551;SDS011;22559;54.176;12.102;2024-02-26T07:47:48;8.87;;;6.80;;
36551;SDS011;22559;54.176;12.102;2024-02-26T07:50:14;7.57;;;6.60;;
36551;SDS011;22559;54.176;12.102;2024-02-26T07:52:40;9.33;;;6.57;;
36551;SDS011;22559;54.176;12.102;2024-02-26T07:55:06;10.33;;;6.17;;
36551;SDS011;22559;54.176;12.102;2024-02-26T07:57:32;6.70;;;6.10;;
36551;SDS011;22559;54.176;12.102;2024-02-26T08:00:01;6.77;;;5.97;;
36551;SDS011;22559;54.176;12.102;2024-02-26T08:02:27;8.57;;;6.10;;
36551;SDS011;22559;54.176;12.102;2024-02-26T08:04:53;7.23;;;6.50;;
36551;SDS011;22559;54.176;12.102;2024-02-26T08:07:19;6.60;;;6.00;;
36551;SDS011;22559;54.176;12.102;2024-02-26T08:09:46;8.57;;;6.67;;
36551;SDS011;22559;54.176;12.102;2024-02-26T08:12:12;7.40;;;6.70;;
36551;SDS011;22559;54.176;12.102;2024-02-26T08:14:37;8.77;;;6.60;;
36551;SDS011;22559;54.176;12.102;2024-02-26T08:17:03;8.00;;;6.77;;
36551;SDS011;22559;54.176;12.102;2024-02-26T08:19:29;7.07;;;6.37;;
36551;SDS011;22559;54.176;12.102;2024-02-26T08:21:54;13.57;;;6.30;;
36551;SDS011;22559;54.176;12.102;2024-02-26T08:24:20;7.60;;;5.90;;
36551;SDS011;22559;54.176;12.102;2024-02-26T08:26:46;7.93;;;6.40;;
36551;SDS011;22559;54.176;12.102;2024-02-26T08:29:11;6.10;;;5.50;;
36551;SDS011;22559;54.176;12.102;2024-02-26T08:31:37;6.53;;;5.90;;
36551;SDS011;22559;54.176;12.102;2024-02-26T08:34:05;7.03;;;5.87;;
36551;SDS011;22559;54.176;12.102;2024-02-26T08:36:32;6.33;;;5.67;;
36551;SDS011;22559;54.176;12.102;2024-02-26T08:38:59;6.30;;;5.53;;
36551;SDS011;22559;54.176;12.102;2024-02-26T08:41:25;6.00;;;5.50;;
36551;SDS011;22559;54.176;12.102;2024-02-26T08:43:51;6.03;;;5.43;;
36551;SDS011;22559;54.176;12.102;2024-02-26T08:46:16;5.60;;;5.10;;
36551;SDS011;22559;54.176;12.102;2024-02-26T08:48:42;5.50;;;5.00;;
36551;SDS011;22559;54.176;12.102;2024-02-26T08:51:08;5.70;;;5.20;;
36551;SDS011;22559;54.176;12.102;2024-02-26T08:53:34;6.20;;;4.73;;
36551;SDS011;22559;54.176;12.102;2024-02-26T08:56:00;5.37;;;4.87;;
36551;SDS011;22559;54.176;12.102;2024-02-26T08:58:27;6.50;;;5.70;;
36551;SDS011;22559;54.176;12.102;2024-02-26T09:00:53;8.87;;;6.27;;
36551;SDS011;22559;54.176;12.102;2024-02-26T09:03:19;8.23;;;6.77;;
36551;SDS011;22559;54.176;12.102;2024-02-26T09:05:45;5.90;;;5.40;;
36551;SDS011;22559;54.176;12.102;2024-02-26T09:08:10;7.70;;;4.63;;
36551;SDS011;22559;54.176;12.102;2024-02-26T09:10:36;4.73;;;4.43;;
36551;SDS011;22559;54.176;12.102;2024-02-26T09:13:02;5.87;;;4.50;;
36551;SDS011;22559;54.176;12.102;2024-02-26T09:15:28;4.93;;;4.43;;
36551;SDS011;22559;54.176;12.102;2024-02-26T09:17:54;5.70;;;4.80;;
36551;SDS011;22559;54.176;12.102;2024-02-26T09:20:19;5.03;;;4.63;;
36551;SDS011;22559;54.176;12.102;2024-02-26T09:22:46;4.53;;;4.23;;
36551;SDS011;22559;54.176;12.102;2024-02-26T09:25:13;4.30;;;4.00;;
36551;SDS011;22559;54.176;12.102;2024-02-26T09:27:40;5.30;;;4.30;;
36551;SDS011;22559;54.176;12.102;2024-02-26T09:30:12;4.93;;;3.40;;
36551;SDS011;22559;54.176;12.102;2024-02-26T09:32:38;3.90;;;3.60;;
36551;SDS011;22559;54.176;12.102;2024-02-26T09:35:07;3.63;;;3.33;;
36551;SDS011;22559;54.176;12.102;2024-02-26T09:37:33;3.60;;;3.37;;
36551;SDS011;22559;54.176;12.102;2024-02-26T09:39:59;3.30;;;3.10;;
36551;SDS011;22559;54.176;12.102;2024-02-26T09:42:26;3.33;;;3.13;;
36551;SDS011;22559;54.176;12.102;2024-02-26T09:44:53;2.90;;;2.70;;
36551;SDS011;22559;54.176;12.102;2024-02-26T09:47:26;3.00;;;2.87;;
36551;SDS011;22559;54.176;12.102;2024-02-26T09:49:56;3.00;;;2.80;;
36551;SDS011;22559;54.176;12.102;2024-02-26T09:52:23;3.50;;;3.20;;
36551;SDS011;22559;54.176;12.102;2024-02-26T09:54:50;3.17;;;2.97;;
36551;SDS011;22559;54.176;12.102;2024-02-26T09:57:16;3.10;;;2.90;;
36551;SDS011;22559;54.176;12.102;2024-02-26T09:59:42;2.90;;;2.60;;
36551;SDS011;22559;54.176;12.102;2024-02-26T10:02:09;3.63;;;3.37;;
36551;SDS011;22559;54.176;12.102;2024-02-26T10:04:37;3.60;;;3.30;;
36551;SDS011;22559;54.176;12.102;2024-02-26T10:07:10;3.60;;;3.30;;
36551;SDS011;22559;54.176;12.102;2024-02-26T10:09:37;3.77;;;3.47;;
36551;SDS011;22559;54.176;12.102;2024-02-26T10:12:04;3.70;;;3.40;;
36551;SDS011;22559;54.176;12.102;2024-02-26T10:14:30;3.60;;;3.40;;
36551;SDS011;22559;54.176;12.102;2024-02-26T10:16:56;3.93;;;3.60;;
36551;SDS011;22559;54.176;12.102;2024-02-26T10:19:25;4.10;;;3.70;;
36551;SDS011;22559;54.176;12.102;2024-02-26T10:21:58;4.40;;;4.00;;
36551;SDS011;22559;54.176;12.102;2024-02-26T10:24:25;3.90;;;3.60;;
36551;SDS011;22559;54.176;12.102;2024-02-26T10:26:54;3.93;;;3.63;;
36551;SDS011;22559;54.176;12.102;2024-02-26T10:29:21;4.17;;;3.87;;
36551;SDS011;22559;54.176;12.102;2024-02-26T10:31:48;3.53;;;3.23;;
36551;SDS011;22559;54.176;12.102;2024-02-26T10:34:15;3.73;;;3.43;;
36551;SDS011;22559;54.176;12.102;2024-02-26T10:36:41;3.57;;;3.27;;
36551;SDS011;22559;54.176;12.102;2024-02-26T10:39:07;3.60;;;3.40;;
36551;SDS011;22559;54.176;12.102;2024-02-26T10:41:33;3.50;;;3.07;;
36551;SDS011;22559;54.176;12.102;2024-02-26T10:43:59;3.50;;;3.30;;
36551;SDS011;22559;54.176;12.102;2024-02-26T10:46:25;4.73;;;3.40;;
36551;SDS011;22559;54.176;12.102;2024-02-26T10:48:52;3.40;;;3.20;;
36551;SDS011;22559;54.176;12.102;2024-02-26T10:51:28;3.57;;;3.30;;
36551;SDS011;22559;54.176;12.102;2024-02-26T10:53:55;3.83;;;3.53;;
36551;SDS011;22559;54.176;12.102;2024-02-26T10:56:26;4.27;;;3.80;;
36551;SDS011;22559;54.176;12.102;2024-02-26T10:58:54;3.60;;;3.30;;
36551;SDS011;22559;54.176;12.102;2024-02-26T11:01:21;4.00;;;3.70;;
36551;SDS011;22559;54.176;12.102;2024-02-26T11:03:50;4.10;;;3.70;;
36551;SDS011;22559;54.176;12.102;2024-02-26T11:06:17;4.10;;;3.57;;
36551;SDS011;22559;54.176;12.102;2024-02-26T11:08:47;4.13;;;3.73;;
36551;SDS011;22559;54.176;12.102;2024-02-26T11:11:14;4.53;;;4.13;;
36551;SDS011;22559;54.176;12.102;2024-02-26T11:13:42;4.07;;;3.77;;
36551;SDS011;22559;54.176;12.102;2024-02-26T11:16:14;4.33;;;4.00;;
36551;SDS011;22559;54.176;12.102;2024-02-26T11:18:43;4.93;;;4.43;;
36551;SDS011;22559;54.176;12.102;2024-02-26T11:21:13;4.53;;;4.13;;
36551;SDS011;22559;54.176;12.102;2024-02-26T11:23:40;5.00;;;4.60;;
36551;SDS011;22559;54.176;12.102;2024-02-26T11:26:06;4.97;;;4.50;;
36551;SDS011;22559;54.176;12.102;2024-02-26T11:28:34;4.57;;;4.17;;
36551;SDS011;22559;54.176;12.102;2024-02-26T11:31:00;5.60;;;5.10;;
36551;SDS011;22559;54.176;12.102;2024-02-26T11:33:28;5.00;;;4.60;;
36551;SDS011;22559;54.176;12.102;2024-02-26T11:35:54;4.50;;;4.10;;
36551;SDS011;22559;54.176;12.102;2024-02-26T11:38:20;4.83;;;4.30;;
36551;SDS011;22559;54.176;12.102;2024-02-26T11:40:47;4.17;;;3.87;;
36551;SDS011;22559;54.176;12.102;2024-02-26T11:43:13;4.53;;;4.13;;
36551;SDS011;22559;54.176;12.102;2024-02-26T11:48:11;4.70;;;4.30;;
36551;SDS011;22559;54.176;12.102;2024-02-26T11:50:41;4.63;;;4.23;;
36551;SDS011;22559;54.176;12.102;2024-02-26T11:55:46;4.80;;;4.40;;
36551;SDS011;22559;54.176;12.102;2024-02-26T11:58:13;5.03;;;4.07;;
36551;SDS011;22559;54.176;12.102;2024-02-26T12:00:42;4.40;;;4.03;;
36551;SDS011;22559;54.176;12.102;2024-02-26T12:03:08;4.77;;;4.37;;
36551;SDS011;22559;54.176;12.102;2024-02-26T12:05:36;4.53;;;3.93;;
36551;SDS011;22559;54.176;12.102;2024-02-26T12:08:08;4.70;;;4.30;;
36551;SDS011;22559;54.176;12.102;2024-02-26T12:10:37;4.50;;;3.83;;
36551;SDS011;22559;54.176;12.102;2024-02-26T12:13:08;4.43;;;4.03;;
36551;SDS011;22559;54.176;12.102;2024-02-26T12:15:38;4.27;;;3.97;;
36551;SDS011;22559;54.176;12.102;2024-02-26T12:18:07;4.63;;;4.23;;
36551;SDS011;22559;54.176;12.102;2024-02-26T12:20:35;4.37;;;4.03;;
36551;SDS011;22559;54.176;12.102;2024-02-26T12:23:03;4.27;;;3.97;;
36551;SDS011;22559;54.176;12.102;2024-02-26T12:25:30;4.60;;;4.20;;
36551;SDS011;22559;54.176;12.102;2024-02-26T12:27:56;4.70;;;4.20;;
36551;SDS011;22559;54.176;12.102;2024-02-26T12:30:22;4.50;;;4.20;;
36551;SDS011;22559;54.176;12.102;2024-02-26T12:32:51;4.60;;;4.20;;
36551;SDS011;22559;54.176;12.102;2024-02-26T12:35:18;6.13;;;4.40;;
36551;SDS011;22559;54.176;12.102;2024-02-26T12:37:44;4.90;;;4.50;;
36551;SDS011;22559;54.176;12.102;2024-02-26T12:40:11;5.83;;;4.47;;
36551;SDS011;22559;54.176;12.102;2024-02-26T12:42:38;4.70;;;4.30;;
36551;SDS011;22559;54.176;12.102;2024-02-26T12:45:07;4.80;;;4.37;;
36551;SDS011;22559;54.176;12.102;2024-02-26T12:47:40;4.77;;;4.30;;
36551;SDS011;22559;54.176;12.102;2024-02-26T12:50:08;5.90;;;4.63;;
36551;SDS011;22559;54.176;12.102;2024-02-26T12:52:35;5.03;;;4.53;;
36551;SDS011;22559;54.176;12.102;2024-02-26T12:55:02;6.93;;;4.73;;
36551;SDS011;22559;54.176;12.102;2024-02-26T12:57:31;4.87;;;4.47;;
36551;SDS011;22559;54.176;12.102;2024-02-26T12:59:59;4.70;;;4.30;;
36551;SDS011;22559;54.176;12.102;2024-02-26T13:02:26;4.93;;;4.40;;
36551;SDS011;22559;54.176;12.102;2024-02-26T13:04:52;4.97;;;4.57;;
36551;SDS011;22559;54.176;12.102;2024-02-26T13:07:20;4.80;;;4.40;;
36551;SDS011;22559;54.176;12.102;2024-02-26T13:09:46;12.07;;;6.93;;
36551;SDS011;22559;54.176;12.102;2024-02-26T13:12:11;5.57;;;4.30;;
36551;SDS011;22559;54.176;12.102;2024-02-26T13:14:38;7.13;;;4.60;;
36551;SDS011;22559;54.176;12.102;2024-02-26T13:17:04;4.87;;;4.40;;
36551;SDS011;22559;54.176;12.102;2024-02-26T13:19:30;5.23;;;4.73;;
36551;SDS011;22559;54.176;12.102;2024-02-26T13:22:02;4.77;;;4.37;;
36551;SDS011;22559;54.176;12.102;2024-02-26T13:24:32;5.13;;;4.70;;
36551;SDS011;22559;54.176;12.102;2024-02-26T13:26:58;5.07;;;4.63;;
36551;SDS011;22559;54.176;12.102;2024-02-26T13:29:24;5.37;;;4.87;;
36551;SDS011;22559;54.176;12.102;2024-02-26T13:31:57;5.30;;;4.80;;
36551;SDS011;22559;54.176;12.102;2024-02-26T13:34:23;4.77;;;4.27;;
36551;SDS011;22559;54.176;12.102;2024-02-26T13:36:50;5.27;;;4.77;;
36551;SDS011;22559;54.176;12.102;2024-02-26T13:39:26;5.07;;;4.60;;
36551;SDS011;22559;54.176;12.102;2024-02-26T13:41:53;5.33;;;4.83;;
36551;SDS011;22559;54.176;12.102;2024-02-26T13:44:19;5.00;;;4.60;;
36551;SDS011;22559;54.176;12.102;2024-02-26T13:46:45;6.70;;;4.93;;
36551;SDS011;22559;54.176;12.102;2024-02-26T13:49:12;5.00;;;4.50;;
36551;SDS011;22559;54.176;12.102;2024-02-26T13:51:38;5.27;;;4.77;;
36551;SDS011;22559;54.176;12.102;2024-02-26T13:54:05;5.10;;;4.67;;
36551;SDS011;22559;54.176;12.102;2024-02-26T13:56:30;5.10;;;4.63;;
36551;SDS011;22559;54.176;12.102;2024-02-26T13:58:57;6.00;;;4.77;;
36551;SDS011;22559;54.176;12.102;2024-02-26T14:01:23;5.03;;;4.63;;
36551;SDS011;22559;54.176;12.102;2024-02-26T14:03:49;5.37;;;4.87;;
36551;SDS011;22559;54.176;12.102;2024-02-26T14:06:15;5.27;;;4.77;;
36551;SDS011;22559;54.176;12.102;2024-02-26T14:08:41;5.07;;;4.67;;
36551;SDS011;22559;54.176;12.102;2024-02-26T14:11:06;4.23;;;3.93;;
36551;SDS011;22559;54.176;12.102;2024-02-26T14:13:32;5.77;;;4.77;;
36551;SDS011;22559;54.176;12.102;2024-02-26T14:15:57;6.00;;;4.70;;
36551;SDS011;22559;54.176;12.102;2024-02-26T14:18:23;4.87;;;4.43;;
36551;SDS011;22559;54.176;12.102;2024-02-26T14:20:49;5.60;;;4.20;;
36551;SDS011;22559;54.176;12.102;2024-02-26T14:23:15;4.87;;;4.47;;
36551;SDS011;22559;54.176;12.102;2024-02-26T14:25:40;5.20;;;4.70;;
36551;SDS011;22559;54.176;12.102;2024-02-26T14:28:06;4.70;;;4.30;;
36551;SDS011;22559;54.176;12.102;2024-02-26T14:30:32;4.90;;;4.40;;
36551;SDS011;22559;54.176;12.102;2024-02-26T14:32:58;4.30;;;4.00;;
36551;SDS011;22559;54.176;12.102;2024-02-26T14:35:24;4.80;;;4.40;;